createdAt,value
2018-03-22T00:00:38.267Z,-3.50
2018-03-22T00:01:38.166Z,-3.53
2018-03-22T00:02:38.091Z,-3.61
2018-03-22T00:03:37.996Z,-3.60
2018-03-22T00:04:37.926Z,-3.57
2018-03-22T00:05:37.836Z,-3.60
2018-03-22T00:06:37.757Z,-3.63
2018-03-22T00:07:37.658Z,-3.63
2018-03-22T00:08:37.585Z,-3.74
2018-03-22T00:09:37.494Z,-3.67
2018-03-22T00:10:37.409Z,-3.79
2018-03-22T00:11:37.317Z,-3.75
2018-03-22T00:12:37.244Z,-3.83
2018-03-22T00:13:37.148Z,-3.92
2018-03-22T00:14:37.073Z,-3.89
2018-03-22T00:15:36.979Z,-3.90
2018-03-22T00:16:36.904Z,-3.89
2018-03-22T00:17:36.812Z,-3.93
2018-03-22T00:18:36.740Z,-3.89
2018-03-22T00:19:36.638Z,-3.88
2018-03-22T00:20:36.558Z,-3.85
2018-03-22T00:21:36.469Z,-3.83
2018-03-22T00:22:36.388Z,-3.80
2018-03-22T00:23:36.301Z,-3.80
2018-03-22T00:24:36.221Z,-3.82
2018-03-22T00:25:36.130Z,-3.92
2018-03-22T00:26:36.053Z,-3.74
2018-03-22T00:27:35.968Z,-3.79
2018-03-22T00:28:35.883Z,-3.74
2018-03-22T00:29:35.792Z,-3.74
2018-03-22T00:30:35.715Z,-3.74
2018-03-22T00:31:35.623Z,-3.74
2018-03-22T00:32:35.541Z,-3.79
2018-03-22T00:33:35.453Z,-3.82
2018-03-22T00:34:35.373Z,-3.80
2018-03-22T00:35:35.282Z,-3.80
2018-03-22T00:36:35.207Z,-3.67
2018-03-22T00:37:35.111Z,-3.66
2018-03-22T00:38:35.034Z,-3.63
2018-03-22T00:39:34.941Z,-3.60
2018-03-22T00:40:34.863Z,-3.60
2018-03-22T00:41:34.771Z,-3.66
2018-03-22T00:42:34.699Z,-3.75
2018-03-22T00:43:34.600Z,-3.80
2018-03-22T00:44:34.522Z,-3.96
2018-03-22T00:45:34.430Z,-4.11
2018-03-22T00:46:34.351Z,-4.14
2018-03-22T00:47:34.260Z,-4.21
2018-03-22T00:48:34.183Z,-4.19
2018-03-22T00:49:34.092Z,-4.25
2018-03-22T00:50:34.015Z,-4.22
2018-03-22T00:51:33.916Z,-4.29
2018-03-22T00:52:33.843Z,-4.22
2018-03-22T00:53:33.752Z,-4.14
2018-03-22T00:54:33.677Z,-4.14
2018-03-22T00:55:33.580Z,-4.14
2018-03-22T00:56:33.502Z,-4.11
2018-03-22T00:57:33.410Z,-4.10
2018-03-22T00:58:33.337Z,-4.15
2018-03-22T00:59:33.243Z,-4.08
2018-03-22T01:00:33.169Z,-4.10
2018-03-22T01:01:33.083Z,-4.14
2018-03-22T01:02:32.994Z,-4.10
2018-03-22T01:03:32.898Z,-4.19
2018-03-22T01:04:32.821Z,-4.18
2018-03-22T01:05:32.734Z,-4.21
2018-03-22T01:06:32.650Z,-4.33
2018-03-22T01:07:32.558Z,-4.37
2018-03-22T01:08:32.482Z,-4.40
2018-03-22T01:09:32.391Z,-4.51
2018-03-22T01:10:32.309Z,-4.51
2018-03-22T01:11:32.217Z,-4.49
2018-03-22T01:12:32.142Z,-4.42
2018-03-22T01:13:32.048Z,-4.36
2018-03-22T01:14:31.971Z,-4.43
2018-03-22T01:15:31.877Z,-4.37
2018-03-22T01:16:31.798Z,-4.29
2018-03-22T01:17:31.704Z,-4.35
2018-03-22T01:18:31.629Z,-4.39
2018-03-22T01:19:31.541Z,-4.26
2018-03-22T01:20:31.466Z,-4.25
2018-03-22T01:21:31.369Z,-4.19
2018-03-22T01:22:31.295Z,-4.26
2018-03-22T01:23:31.201Z,-4.22
2018-03-22T01:24:31.122Z,-4.24
2018-03-22T01:25:31.027Z,-4.28
2018-03-22T01:26:30.946Z,-4.26
2018-03-22T01:27:30.850Z,-4.26
2018-03-22T01:28:30.778Z,-4.22
2018-03-22T01:29:30.684Z,-4.28
2018-03-22T01:30:30.604Z,-4.18
2018-03-22T01:31:30.513Z,-4.26
2018-03-22T01:32:30.432Z,-4.24
2018-03-22T01:33:30.345Z,-4.18
2018-03-22T01:34:30.303Z,-4.33
2018-03-22T01:35:30.181Z,-4.33
2018-03-22T01:36:30.092Z,-4.25
2018-03-22T01:37:30.001Z,-4.26
2018-03-22T01:38:29.924Z,-4.35
2018-03-22T01:39:29.831Z,-4.37
2018-03-22T01:40:29.752Z,-4.47
2018-03-22T01:41:29.661Z,-4.45
2018-03-22T01:42:29.595Z,-4.58
2018-03-22T01:43:29.487Z,-4.55
2018-03-22T01:44:29.424Z,-4.54
2018-03-22T01:45:29.320Z,-4.58
2018-03-22T01:46:29.237Z,-4.68
2018-03-22T01:47:29.147Z,-4.81
2018-03-22T01:48:29.073Z,-4.78
2018-03-22T01:49:28.983Z,-4.82
2018-03-22T01:50:28.900Z,-4.82
2018-03-22T01:51:28.809Z,-4.85
2018-03-22T01:52:28.731Z,-4.84
2018-03-22T01:53:28.635Z,-4.89
2018-03-22T01:54:28.558Z,-4.85
2018-03-22T01:55:28.463Z,-4.76
2018-03-22T01:56:28.388Z,-4.75
2018-03-22T01:57:28.297Z,-4.82
2018-03-22T01:58:28.219Z,-4.72
2018-03-22T01:59:28.124Z,-4.78
2018-03-22T02:00:28.046Z,-4.74
2018-03-22T02:01:27.954Z,-4.65
2018-03-22T02:02:27.879Z,-4.74
2018-03-22T02:03:27.784Z,-4.76
2018-03-22T02:04:27.705Z,-4.76
2018-03-22T02:05:27.614Z,-4.71
2018-03-22T02:06:27.534Z,-4.68
2018-03-22T02:07:27.438Z,-4.61
2018-03-22T02:08:27.361Z,-4.64
2018-03-22T02:09:27.272Z,-4.65
2018-03-22T02:10:27.188Z,-4.58
2018-03-22T02:11:27.098Z,-4.58
2018-03-22T02:12:27.018Z,-4.68
2018-03-22T02:13:26.926Z,-4.71
2018-03-22T02:14:26.853Z,-4.81
2018-03-22T02:15:26.754Z,-4.85
2018-03-22T02:16:26.678Z,-4.90
2018-03-22T02:17:26.585Z,-4.93
2018-03-22T02:18:26.508Z,-4.90
2018-03-22T02:19:26.416Z,-4.94
2018-03-22T02:20:26.337Z,-4.90
2018-03-22T02:21:26.241Z,-4.93
2018-03-22T02:22:26.160Z,-4.93
2018-03-22T02:23:26.070Z,-4.89
2018-03-22T02:24:25.990Z,-4.84
2018-03-22T02:25:25.901Z,-4.92
2018-03-22T02:26:25.823Z,-4.86
2018-03-22T02:27:25.728Z,-4.86
2018-03-22T02:28:25.649Z,-4.86
2018-03-22T02:29:25.591Z,-4.90
2018-03-22T02:30:25.485Z,-4.81
2018-03-22T02:31:25.387Z,-4.92
2018-03-22T02:32:25.308Z,-4.84
2018-03-22T02:33:25.214Z,-4.84
2018-03-22T02:34:25.135Z,-4.79
2018-03-22T02:35:25.045Z,-4.76
2018-03-22T02:36:24.968Z,-4.85
2018-03-22T02:37:24.872Z,-4.86
2018-03-22T02:38:24.795Z,-4.79
2018-03-22T02:39:24.704Z,-4.85
2018-03-22T02:40:24.623Z,-4.82
2018-03-22T02:41:24.533Z,-4.85
2018-03-22T02:42:24.445Z,-4.93
2018-03-22T02:43:24.356Z,-4.94
2018-03-22T02:44:24.284Z,-4.93
2018-03-22T02:45:24.184Z,-4.93
2018-03-22T02:46:24.109Z,-4.93
2018-03-22T02:47:24.017Z,-4.93
2018-03-22T02:48:23.937Z,-4.92
2018-03-22T02:49:23.847Z,-4.90
2018-03-22T02:50:23.767Z,-5.00
2018-03-22T02:51:23.672Z,-4.92
2018-03-22T02:52:23.593Z,-4.90
2018-03-22T02:53:23.502Z,-4.93
2018-03-22T02:54:23.424Z,-5.10
2018-03-22T02:55:23.328Z,-5.10
2018-03-22T02:56:23.248Z,-5.04
2018-03-22T02:57:23.164Z,-5.08
2018-03-22T02:58:23.083Z,-5.18
2018-03-22T02:59:22.987Z,-5.13
2018-03-22T03:00:22.908Z,-5.14
2018-03-22T03:01:22.809Z,-5.18
2018-03-22T03:02:22.737Z,-5.16
2018-03-22T03:03:22.641Z,-5.23
2018-03-22T03:04:22.574Z,-5.19
2018-03-22T03:05:22.469Z,-5.27
2018-03-22T03:06:22.395Z,-5.34
2018-03-22T03:07:22.300Z,-5.50
2018-03-22T03:08:22.222Z,-5.40
2018-03-22T03:09:22.129Z,-5.39
2018-03-22T03:10:22.054Z,-5.42
2018-03-22T03:11:21.955Z,-5.40
2018-03-22T03:12:21.879Z,-5.40
2018-03-22T03:13:21.786Z,-5.33
2018-03-22T03:14:21.709Z,-5.33
2018-03-22T03:15:21.619Z,-5.37
2018-03-22T03:16:21.533Z,-5.27
2018-03-22T03:17:21.439Z,-5.32
2018-03-22T03:18:21.372Z,-5.33
2018-03-22T03:19:21.270Z,-5.36
2018-03-22T03:20:21.193Z,-5.37
2018-03-22T03:21:21.094Z,-5.37
2018-03-22T03:22:21.016Z,-5.37
2018-03-22T03:23:20.924Z,-5.36
2018-03-22T03:24:20.847Z,-5.27
2018-03-22T03:25:20.756Z,-5.30
2018-03-22T03:26:20.673Z,-5.22
2018-03-22T03:27:20.583Z,-5.19
2018-03-22T03:28:20.505Z,-5.34
2018-03-22T03:29:20.410Z,-5.27
2018-03-22T03:30:20.436Z,-5.25
2018-03-22T03:31:20.240Z,-5.32
2018-03-22T03:32:20.158Z,-5.37
2018-03-22T03:33:20.069Z,-5.22
2018-03-22T03:34:19.993Z,-5.32
2018-03-22T03:35:19.893Z,-5.32
2018-03-22T03:36:19.816Z,-5.44
2018-03-22T03:37:19.722Z,-5.43
2018-03-22T03:38:19.648Z,-5.42
2018-03-22T03:39:19.549Z,-5.43
2018-03-22T03:40:19.473Z,-5.48
2018-03-22T03:41:19.427Z,-5.51
2018-03-22T03:42:19.305Z,-5.51
2018-03-22T03:43:19.208Z,-5.51
2018-03-22T03:44:19.126Z,-5.50
2018-03-22T03:45:19.040Z,-5.52
2018-03-22T03:46:18.956Z,-5.44
2018-03-22T03:47:18.862Z,-5.40
2018-03-22T03:48:18.804Z,-5.54
2018-03-22T03:49:18.697Z,-5.47
2018-03-22T03:50:18.609Z,-5.51
2018-03-22T03:51:18.519Z,-5.47
2018-03-22T03:52:18.438Z,-5.54
2018-03-22T03:53:18.346Z,-5.57
2018-03-22T03:54:18.272Z,-5.50
2018-03-22T03:55:18.178Z,-5.48
2018-03-22T03:56:18.099Z,-5.44
2018-03-22T03:57:18.002Z,-5.50
2018-03-22T03:58:17.930Z,-5.43
2018-03-22T03:59:17.834Z,-5.55
2018-03-22T04:00:17.752Z,-5.47
2018-03-22T04:01:17.659Z,-5.42
2018-03-22T04:02:17.577Z,-5.40
2018-03-22T04:03:17.485Z,-5.34
2018-03-22T04:04:17.406Z,-5.39
2018-03-22T04:05:17.314Z,-5.36
2018-03-22T04:06:17.238Z,-5.30
2018-03-22T04:07:17.140Z,-5.27
2018-03-22T04:08:17.063Z,-5.29
2018-03-22T04:09:16.965Z,-5.32
2018-03-22T04:10:16.893Z,-5.23
2018-03-22T04:11:16.798Z,-5.27
2018-03-22T04:12:16.721Z,-5.22
2018-03-22T04:13:16.623Z,-5.19
2018-03-22T04:14:16.550Z,-5.25
2018-03-22T04:15:16.452Z,-5.30
2018-03-22T04:16:16.377Z,-5.16
2018-03-22T04:17:16.282Z,-5.16
2018-03-22T04:18:16.199Z,-5.21
2018-03-22T04:19:16.106Z,-5.10
2018-03-22T04:20:16.032Z,-5.16
2018-03-22T04:21:15.938Z,-5.18
2018-03-22T04:22:15.859Z,-5.19
2018-03-22T04:23:15.769Z,-5.21
2018-03-22T04:24:15.680Z,-5.30
2018-03-22T04:25:15.594Z,-5.32
2018-03-22T04:26:15.513Z,-5.25
2018-03-22T04:27:15.426Z,-5.22
2018-03-22T04:28:15.344Z,-5.22
2018-03-22T04:29:15.244Z,-5.29
2018-03-22T04:30:15.168Z,-5.25
2018-03-22T04:31:15.073Z,-5.22
2018-03-22T04:32:14.997Z,-5.16
2018-03-22T04:33:14.903Z,-5.22
2018-03-22T04:34:14.828Z,-5.32
2018-03-22T04:35:14.730Z,-5.06
2018-03-22T04:36:14.650Z,-5.29
2018-03-22T04:37:14.563Z,-5.14
2018-03-22T04:38:14.479Z,-5.08
2018-03-22T04:39:14.389Z,-5.11
2018-03-22T04:40:14.309Z,-5.10
2018-03-22T04:41:14.214Z,-5.00
2018-03-22T04:42:14.142Z,-4.97
2018-03-22T04:43:14.042Z,-4.92
2018-03-22T04:44:13.968Z,-4.94
2018-03-22T04:45:13.870Z,-4.93
2018-03-22T04:46:13.795Z,-4.94
2018-03-22T04:47:13.705Z,-4.94
2018-03-22T04:48:13.619Z,-4.90
2018-03-22T04:49:13.528Z,-4.96
2018-03-22T04:50:13.467Z,-4.90
2018-03-22T04:51:13.353Z,-4.93
2018-03-22T04:52:13.347Z,-4.92
2018-03-22T04:53:13.180Z,-4.94
2018-03-22T04:54:13.104Z,-4.89
2018-03-22T04:55:13.010Z,-4.90
2018-03-22T04:56:12.937Z,-4.89
2018-03-22T04:57:12.846Z,-4.90
2018-03-22T04:58:12.762Z,-4.82
2018-03-22T04:59:12.711Z,-4.85
2018-03-22T05:00:12.586Z,-4.85
2018-03-22T05:01:12.496Z,-4.81
2018-03-22T05:02:12.420Z,-4.78
2018-03-22T05:03:12.320Z,-4.68
2018-03-22T05:04:12.246Z,-4.75
2018-03-22T05:05:12.151Z,-4.72
2018-03-22T05:06:12.076Z,-4.67
2018-03-22T05:07:11.980Z,-4.64
2018-03-22T05:08:11.904Z,-4.64
2018-03-22T05:09:11.807Z,-4.65
2018-03-22T05:10:11.729Z,-4.58
2018-03-22T05:11:11.631Z,-4.72
2018-03-22T05:12:11.556Z,-4.54
2018-03-22T05:13:11.462Z,-4.57
2018-03-22T05:14:11.385Z,-4.55
2018-03-22T05:15:11.293Z,-4.61
2018-03-22T05:16:11.214Z,-4.54
2018-03-22T05:17:11.121Z,-4.58
2018-03-22T05:18:11.041Z,-4.57
2018-03-22T05:19:10.950Z,-4.57
2018-03-22T05:20:10.868Z,-4.53
2018-03-22T05:21:10.781Z,-4.54
2018-03-22T05:22:10.700Z,-4.51
2018-03-22T05:23:10.603Z,-4.53
2018-03-22T05:24:10.526Z,-4.55
2018-03-22T05:25:10.433Z,-4.57
2018-03-22T05:26:10.361Z,-4.67
2018-03-22T05:27:10.264Z,-4.51
2018-03-22T05:28:10.183Z,-4.60
2018-03-22T05:29:10.089Z,-4.46
2018-03-22T05:30:10.009Z,-4.49
2018-03-22T05:31:09.925Z,-4.49
2018-03-22T05:32:09.839Z,-4.43
2018-03-22T05:33:09.749Z,-4.37
2018-03-22T05:34:09.667Z,-4.36
2018-03-22T05:35:09.583Z,-4.24
2018-03-22T05:36:09.492Z,-4.21
2018-03-22T05:37:09.405Z,-4.11
2018-03-22T05:38:09.329Z,-4.15
2018-03-22T05:39:09.233Z,-3.98
2018-03-22T05:40:09.153Z,-4.01
2018-03-22T05:41:09.102Z,-4.04
2018-03-22T05:42:08.980Z,-4.03
2018-03-22T05:43:08.903Z,-4.04
2018-03-22T05:44:08.813Z,-3.96
2018-03-22T05:45:08.719Z,-3.92
2018-03-22T05:46:08.639Z,-3.89
2018-03-22T05:47:08.544Z,-3.92
2018-03-22T05:48:08.468Z,-3.83
2018-03-22T05:49:08.374Z,-3.85
2018-03-22T05:50:08.295Z,-3.74
2018-03-22T05:51:08.205Z,-3.79
2018-03-22T05:52:08.125Z,-3.75
2018-03-22T05:53:08.030Z,-3.60
2018-03-22T05:54:07.951Z,-3.61
2018-03-22T05:55:07.859Z,-3.61
2018-03-22T05:56:07.786Z,-3.43
2018-03-22T05:57:07.691Z,-3.43
2018-03-22T05:58:07.613Z,-3.39
2018-03-22T05:59:07.519Z,-3.35
2018-03-22T06:00:07.435Z,-3.20
2018-03-22T06:01:07.347Z,-3.17
2018-03-22T06:02:07.278Z,-3.14
2018-03-22T06:03:07.185Z,-3.13
2018-03-22T06:04:07.098Z,-3.11
2018-03-22T06:05:07.013Z,-3.06
2018-03-22T06:06:06.929Z,-2.98
2018-03-22T06:07:06.835Z,-2.95
2018-03-22T06:08:06.760Z,-2.91
2018-03-22T06:09:06.660Z,-2.92
2018-03-22T06:10:06.586Z,-2.89
2018-03-22T06:11:06.495Z,-2.93
2018-03-22T06:12:06.420Z,-2.83
2018-03-22T06:13:06.323Z,-2.83
2018-03-22T06:14:06.235Z,-2.77
2018-03-22T06:15:06.179Z,-2.80
2018-03-22T06:16:06.066Z,-2.77
2018-03-22T06:17:05.989Z,-2.73
2018-03-22T06:18:05.897Z,-2.80
2018-03-22T06:19:05.817Z,-2.68
2018-03-22T06:20:05.724Z,-2.75
2018-03-22T06:21:05.650Z,-2.70
2018-03-22T06:22:05.556Z,-2.70
2018-03-22T06:23:05.474Z,-2.60
2018-03-22T06:24:05.386Z,-2.54
2018-03-22T06:25:05.310Z,-2.56
2018-03-22T06:26:05.221Z,-2.56
2018-03-22T06:27:05.139Z,-2.47
2018-03-22T06:28:05.045Z,-2.42
2018-03-22T06:29:04.966Z,-2.27
2018-03-22T06:30:04.874Z,-2.09
2018-03-22T06:31:04.794Z,-2.13
2018-03-22T06:32:04.704Z,-1.95
2018-03-22T06:33:04.676Z,-1.92
2018-03-22T06:34:04.536Z,-1.78
2018-03-22T06:35:04.458Z,-1.66
2018-03-22T06:36:04.362Z,-1.70
2018-03-22T06:37:04.289Z,-1.60
2018-03-22T06:38:04.202Z,-1.60
2018-03-22T06:39:04.119Z,-1.55
2018-03-22T06:40:04.037Z,-1.55
2018-03-22T06:41:03.949Z,-1.44
2018-03-22T06:42:03.859Z,-1.45
2018-03-22T06:43:03.773Z,-1.53
2018-03-22T06:44:03.686Z,-1.53
2018-03-22T06:45:03.610Z,-1.58
2018-03-22T06:46:03.518Z,-1.48
2018-03-22T06:47:03.441Z,-1.38
2018-03-22T06:48:03.350Z,-1.40
2018-03-22T06:49:03.273Z,-1.29
2018-03-22T06:50:03.181Z,-1.17
2018-03-22T06:51:03.106Z,-1.24
2018-03-22T06:52:03.010Z,-1.20
2018-03-22T06:53:02.931Z,-1.20
2018-03-22T06:54:02.842Z,-0.98
2018-03-22T06:55:02.767Z,-0.98
2018-03-22T06:56:02.673Z,-0.99
2018-03-22T06:57:02.624Z,-0.95
2018-03-22T06:58:02.504Z,-0.91
2018-03-22T06:59:02.424Z,-0.83
2018-03-22T07:00:02.335Z,-0.80
2018-03-22T07:01:02.253Z,-0.74
2018-03-22T07:02:02.165Z,-0.82
2018-03-22T07:03:02.086Z,-0.72
2018-03-22T07:04:01.997Z,-0.71
2018-03-22T07:05:01.920Z,-0.74
2018-03-22T07:06:01.832Z,-0.58
2018-03-22T07:07:01.752Z,-0.59
2018-03-22T07:08:01.661Z,-0.61
2018-03-22T07:09:01.584Z,-0.53
2018-03-22T07:10:01.494Z,-0.56
2018-03-22T07:11:01.415Z,-0.40
2018-03-22T07:12:01.327Z,-0.47
2018-03-22T07:13:01.252Z,-0.41
2018-03-22T07:14:01.159Z,-0.28
2018-03-22T07:15:01.078Z,-0.40
2018-03-22T07:16:00.990Z,-0.28
2018-03-22T07:17:00.914Z,-0.46
2018-03-22T07:18:00.819Z,-0.43
2018-03-22T07:19:00.742Z,-0.33
2018-03-22T07:20:00.650Z,-0.40
2018-03-22T07:21:00.577Z,-0.37
2018-03-22T07:22:00.485Z,-0.19
2018-03-22T07:23:00.414Z,-0.19
2018-03-22T07:24:00.318Z,-0.20
2018-03-22T07:25:00.243Z,-0.25
2018-03-22T07:26:00.156Z,-0.17
2018-03-22T07:27:00.079Z,-0.08
2018-03-22T07:27:59.983Z,-0.02
2018-03-22T07:28:59.906Z,0.03
2018-03-22T07:29:59.814Z,0.04
2018-03-22T07:30:59.741Z,0.04
2018-03-22T07:31:59.653Z,0.10
2018-03-22T07:32:59.576Z,0.17
2018-03-22T07:33:59.483Z,0.18
2018-03-22T07:34:59.413Z,0.22
2018-03-22T07:35:59.319Z,0.27
2018-03-22T07:36:59.240Z,0.43
2018-03-22T07:37:59.147Z,0.47
2018-03-22T07:38:59.074Z,0.46
2018-03-22T07:39:58.983Z,0.52
2018-03-22T07:40:58.906Z,0.52
2018-03-22T07:41:58.820Z,0.57
2018-03-22T07:42:58.741Z,0.61
2018-03-22T07:43:58.650Z,0.53
2018-03-22T07:44:58.590Z,0.49
2018-03-22T07:45:58.487Z,0.47
2018-03-22T07:46:58.405Z,0.61
2018-03-22T07:47:58.316Z,0.66
2018-03-22T07:48:58.248Z,0.64
2018-03-22T07:49:58.152Z,0.68
2018-03-22T07:50:58.073Z,0.62
2018-03-22T07:51:57.985Z,0.80
2018-03-22T07:52:57.909Z,0.79
2018-03-22T07:53:57.819Z,0.86
2018-03-22T07:54:57.786Z,0.80
2018-03-22T07:55:57.652Z,0.86
2018-03-22T07:56:57.579Z,0.93
2018-03-22T07:57:57.490Z,0.93
2018-03-22T07:58:57.520Z,0.97
2018-03-22T07:59:57.322Z,0.93
2018-03-22T08:00:57.314Z,1.02
2018-03-22T08:01:57.160Z,1.07
2018-03-22T08:02:57.120Z,1.08
2018-03-22T08:03:56.994Z,1.12
2018-03-22T08:04:57.032Z,1.12
2018-03-22T08:05:56.832Z,1.12
2018-03-22T08:06:56.872Z,1.23
2018-03-22T08:07:56.657Z,1.20
2018-03-22T08:08:56.648Z,1.15
2018-03-22T08:09:56.497Z,1.11
2018-03-22T08:10:56.459Z,1.23
2018-03-22T08:11:56.329Z,1.19
2018-03-22T08:12:56.265Z,1.23
2018-03-22T08:13:56.168Z,1.29
2018-03-22T08:14:56.184Z,1.38
2018-03-22T08:15:55.997Z,1.55
2018-03-22T08:16:55.983Z,1.48
2018-03-22T08:17:55.842Z,1.65
2018-03-22T08:18:55.792Z,1.73
2018-03-22T08:19:55.676Z,1.66
2018-03-22T08:20:55.703Z,1.79
2018-03-22T08:21:55.504Z,1.83
2018-03-22T08:22:55.513Z,1.87
2018-03-22T08:23:55.340Z,1.84
2018-03-22T08:24:55.319Z,1.84
2018-03-22T08:25:55.178Z,1.86
2018-03-22T08:26:55.129Z,1.87
2018-03-22T08:27:55.012Z,1.84
2018-03-22T08:28:55.038Z,1.82
2018-03-22T08:29:54.849Z,1.82
2018-03-22T08:30:54.850Z,1.82
2018-03-22T08:31:54.684Z,1.79
2018-03-22T08:32:54.660Z,1.84
2018-03-22T08:33:54.521Z,1.82
2018-03-22T08:34:54.463Z,1.82
2018-03-22T08:35:54.355Z,1.77
2018-03-22T08:36:54.376Z,1.65
2018-03-22T08:37:54.190Z,1.68
2018-03-22T08:39:04.932Z,1.66
2018-03-22T08:40:04.940Z,1.79
2018-03-22T08:40:53.947Z,1.77
2018-03-22T08:41:53.873Z,1.79
2018-03-22T08:42:53.775Z,1.80
2018-03-22T08:43:53.808Z,1.87
2018-03-22T08:44:53.614Z,1.98
2018-03-22T08:45:53.533Z,1.92
2018-03-22T08:46:53.520Z,2.02
2018-03-22T08:47:53.375Z,1.92
2018-03-22T08:48:53.328Z,1.98
2018-03-22T08:49:53.206Z,2.06
2018-03-22T08:50:53.240Z,2.03
2018-03-22T08:51:53.038Z,2.12
2018-03-22T08:52:53.046Z,2.10
2018-03-22T08:53:52.878Z,2.06
2018-03-22T08:54:52.856Z,2.13
2018-03-22T08:55:52.715Z,2.09
2018-03-22T08:56:52.672Z,2.01
2018-03-22T08:57:52.551Z,2.10
2018-03-22T08:58:52.575Z,2.16
2018-03-22T08:59:52.390Z,2.03
2018-03-22T09:00:52.381Z,2.10
2018-03-22T09:01:52.221Z,2.14
2018-03-22T09:02:52.196Z,2.12
2018-03-22T09:03:52.056Z,2.10
2018-03-22T09:04:51.999Z,2.03
2018-03-22T09:05:51.892Z,2.14
2018-03-22T09:06:51.910Z,2.12
2018-03-22T09:07:51.730Z,2.14
2018-03-22T09:08:51.713Z,2.17
2018-03-22T09:09:51.568Z,2.28
2018-03-22T09:10:51.582Z,2.34
2018-03-22T09:11:51.399Z,2.35
2018-03-22T09:12:51.437Z,2.50
2018-03-22T09:13:51.238Z,2.53
2018-03-22T09:14:51.252Z,2.46
2018-03-22T09:15:51.079Z,2.59
2018-03-22T09:16:51.055Z,2.67
2018-03-22T09:17:50.917Z,2.57
2018-03-22T09:18:50.866Z,2.56
2018-03-22T09:19:50.751Z,2.67
2018-03-22T09:20:50.773Z,2.80
2018-03-22T09:21:50.586Z,2.84
2018-03-22T09:22:50.588Z,2.84
2018-03-22T09:23:50.419Z,2.88
2018-03-22T09:24:50.395Z,2.88
2018-03-22T09:25:50.258Z,2.98
2018-03-22T09:26:52.245Z,2.91
2018-03-22T09:27:50.116Z,2.96
2018-03-22T09:28:51.033Z,2.95
2018-03-22T09:29:49.931Z,2.89
2018-03-22T09:30:49.918Z,2.93
2018-03-22T09:31:49.766Z,2.93
2018-03-22T09:32:49.692Z,2.95
2018-03-22T09:33:49.628Z,2.92
2018-03-22T09:34:49.533Z,3.04
2018-03-22T09:35:49.547Z,3.04
2018-03-22T09:36:49.360Z,3.13
2018-03-22T09:37:49.349Z,3.29
2018-03-22T09:38:49.197Z,3.27
2018-03-22T09:39:49.161Z,3.34
2018-03-22T09:40:49.034Z,3.34
2018-03-22T09:41:49.089Z,3.37
2018-03-22T09:42:48.873Z,3.43
2018-03-22T09:43:48.804Z,3.32
2018-03-22T09:44:48.709Z,3.25
2018-03-22T09:45:48.685Z,3.32
2018-03-22T09:46:48.550Z,3.51
2018-03-22T09:47:48.499Z,3.61
2018-03-22T09:48:48.385Z,3.64
2018-03-22T09:49:48.410Z,3.65
2018-03-22T09:50:48.220Z,3.71
2018-03-22T09:51:48.211Z,3.87
2018-03-22T09:52:48.063Z,3.90
2018-03-22T09:53:48.021Z,3.89
2018-03-22T09:54:47.901Z,3.98
2018-03-22T09:55:47.932Z,4.02
2018-03-22T09:56:47.740Z,4.07
2018-03-22T09:57:47.742Z,4.04
2018-03-22T09:58:47.579Z,4.04
2018-03-22T09:59:47.547Z,4.02
2018-03-22T10:00:47.416Z,4.02
2018-03-22T10:01:47.356Z,3.93
2018-03-22T10:02:47.281Z,4.02
2018-03-22T10:03:47.267Z,4.02
2018-03-22T10:04:47.092Z,4.02
2018-03-22T10:05:47.073Z,4.01
2018-03-22T10:06:46.927Z,4.04
2018-03-22T10:07:46.883Z,4.04
2018-03-22T10:08:46.773Z,4.05
2018-03-22T10:09:46.796Z,4.02
2018-03-22T10:10:46.609Z,4.15
2018-03-22T10:11:46.602Z,4.18
2018-03-22T10:12:46.448Z,4.12
2018-03-22T10:13:46.408Z,4.10
2018-03-22T10:14:46.286Z,4.19
2018-03-22T10:15:46.320Z,4.20
2018-03-22T10:16:46.130Z,4.23
2018-03-22T10:17:46.130Z,4.22
2018-03-22T10:18:45.967Z,4.29
2018-03-22T10:19:45.940Z,4.28
2018-03-22T10:20:45.803Z,4.34
2018-03-22T10:21:45.771Z,4.41
2018-03-22T10:22:45.643Z,4.41
2018-03-22T10:23:45.658Z,4.47
2018-03-22T10:24:45.481Z,4.48
2018-03-22T10:25:45.468Z,4.46
2018-03-22T10:26:45.317Z,4.48
2018-03-22T10:27:45.276Z,4.50
2018-03-22T10:28:45.158Z,4.56
2018-03-22T10:29:45.184Z,4.54
2018-03-22T10:30:44.998Z,4.58
2018-03-22T10:31:44.991Z,4.62
2018-03-22T10:32:44.838Z,4.56
2018-03-22T10:33:44.800Z,4.52
2018-03-22T10:34:44.678Z,4.50
2018-03-22T10:35:44.710Z,4.55
2018-03-22T10:36:44.518Z,4.48
2018-03-22T10:37:44.513Z,4.44
2018-03-22T10:38:44.357Z,4.46
2018-03-22T10:39:44.331Z,4.48
2018-03-22T10:40:44.199Z,4.50
2018-03-22T10:41:44.137Z,4.44
2018-03-22T10:42:44.036Z,4.37
2018-03-22T10:43:44.048Z,4.47
2018-03-22T10:44:43.875Z,4.47
2018-03-22T10:45:43.854Z,4.44
2018-03-22T10:46:43.717Z,4.56
2018-03-22T10:47:43.659Z,4.55
2018-03-22T10:48:43.632Z,4.56
2018-03-22T10:49:43.573Z,4.59
2018-03-22T10:50:43.392Z,4.58
2018-03-22T10:51:43.382Z,4.55
2018-03-22T10:52:43.243Z,4.59
2018-03-22T10:53:43.193Z,4.69
2018-03-22T10:54:43.073Z,4.64
2018-03-22T10:55:43.109Z,4.69
2018-03-22T10:56:42.912Z,4.73
2018-03-22T10:57:42.914Z,4.65
2018-03-22T10:58:42.755Z,4.84
2018-03-22T10:59:42.681Z,4.84
2018-03-22T11:00:42.595Z,4.80
2018-03-22T11:01:42.626Z,4.93
2018-03-22T11:02:42.434Z,4.96
2018-03-22T11:03:42.437Z,5.02
2018-03-22T11:04:42.271Z,5.10
2018-03-22T11:05:42.246Z,5.11
2018-03-22T11:06:42.118Z,5.17
2018-03-22T11:07:42.054Z,5.20
2018-03-22T11:08:41.949Z,5.13
2018-03-22T11:09:41.976Z,5.26
2018-03-22T11:10:41.796Z,5.31
2018-03-22T11:11:41.772Z,5.32
2018-03-22T11:12:41.637Z,5.42
2018-03-22T11:13:41.578Z,5.42
2018-03-22T11:14:41.480Z,5.60
2018-03-22T11:15:41.490Z,5.50
2018-03-22T11:16:41.318Z,5.56
2018-03-22T11:17:41.303Z,5.54
2018-03-22T11:18:41.158Z,5.50
2018-03-22T11:19:41.108Z,5.50
2018-03-22T11:20:40.999Z,5.59
2018-03-22T11:21:40.925Z,5.57
2018-03-22T11:22:40.839Z,5.54
2018-03-22T11:23:40.828Z,5.57
2018-03-22T11:24:40.685Z,5.68
2018-03-22T11:25:40.636Z,5.62
2018-03-22T11:26:40.517Z,5.65
2018-03-22T11:27:40.543Z,5.68
2018-03-22T11:28:40.362Z,5.65
2018-03-22T11:29:40.353Z,5.62
2018-03-22T11:30:40.203Z,5.67
2018-03-22T11:31:40.171Z,5.59
2018-03-22T11:32:40.043Z,5.60
2018-03-22T11:33:40.077Z,5.63
2018-03-22T11:34:39.894Z,5.52
2018-03-22T11:35:39.881Z,5.68
2018-03-22T11:36:39.732Z,5.65
2018-03-22T11:37:39.694Z,5.63
2018-03-22T11:38:39.567Z,5.54
2018-03-22T11:39:39.602Z,5.56
2018-03-22T11:40:39.418Z,5.59
2018-03-22T11:41:39.410Z,5.54
2018-03-22T11:42:39.249Z,5.57
2018-03-22T11:43:39.215Z,5.50
2018-03-22T11:44:39.097Z,5.60
2018-03-22T11:45:39.129Z,5.54
2018-03-22T11:46:38.935Z,5.56
2018-03-22T11:47:38.938Z,5.52
2018-03-22T11:48:38.774Z,5.60
2018-03-22T11:49:38.751Z,5.65
2018-03-22T11:50:38.618Z,5.57
2018-03-22T11:51:38.556Z,5.59
2018-03-22T11:52:38.464Z,5.57
2018-03-22T11:53:38.466Z,5.54
2018-03-22T11:54:38.299Z,5.54
2018-03-22T11:55:38.270Z,5.54
2018-03-22T11:56:38.140Z,5.53
2018-03-22T11:57:38.082Z,5.62
2018-03-22T11:58:37.985Z,5.54
2018-03-22T11:59:37.989Z,5.56
2018-03-22T12:00:37.823Z,5.56
2018-03-22T12:01:37.798Z,5.50
2018-03-22T12:02:37.665Z,5.60
2018-03-22T12:03:37.619Z,5.71
2018-03-22T12:04:37.509Z,5.65
2018-03-22T12:05:37.525Z,5.60
2018-03-22T12:06:37.346Z,5.57
2018-03-22T12:07:37.327Z,5.59
2018-03-22T12:08:37.188Z,5.67
2018-03-22T12:09:37.138Z,5.62
2018-03-22T12:10:37.027Z,5.57
2018-03-22T12:11:37.045Z,5.67
2018-03-22T12:12:36.875Z,5.65
2018-03-22T12:13:36.853Z,5.65
2018-03-22T12:14:36.713Z,5.68
2018-03-22T12:15:36.665Z,5.70
2018-03-22T12:16:36.555Z,5.71
2018-03-22T12:17:36.573Z,5.68
2018-03-22T12:18:36.397Z,5.74
2018-03-22T12:19:36.382Z,5.74
2018-03-22T12:20:36.244Z,5.75
2018-03-22T12:21:36.256Z,5.81
2018-03-22T12:22:36.074Z,5.89
2018-03-22T12:23:36.104Z,5.81
2018-03-22T12:24:35.919Z,5.88
2018-03-22T12:25:35.909Z,5.83
2018-03-22T12:26:35.758Z,5.95
2018-03-22T12:27:35.717Z,5.83
2018-03-22T12:28:35.601Z,5.81
2018-03-22T12:29:35.632Z,5.83
2018-03-22T12:30:35.443Z,5.89
2018-03-22T12:31:35.437Z,5.85
2018-03-22T12:32:35.280Z,5.83
2018-03-22T12:33:35.244Z,5.78
2018-03-22T12:34:35.122Z,5.88
2018-03-22T12:35:35.155Z,5.92
2018-03-22T12:36:34.973Z,5.93
2018-03-22T12:37:34.963Z,5.92
2018-03-22T12:38:34.808Z,5.99
2018-03-22T12:39:34.773Z,6.06
2018-03-22T12:40:34.650Z,6.07
2018-03-22T12:41:34.580Z,6.13
2018-03-22T12:42:34.491Z,6.14
2018-03-22T12:43:34.571Z,6.18
2018-03-22T12:44:34.335Z,6.18
2018-03-22T12:45:34.306Z,6.22
2018-03-22T12:46:34.173Z,6.24
2018-03-22T12:47:34.213Z,6.15
2018-03-22T12:48:34.018Z,6.17
2018-03-22T12:49:34.021Z,6.13
2018-03-22T12:50:33.860Z,6.07
2018-03-22T12:51:33.826Z,6.08
2018-03-22T12:52:33.835Z,6.07
2018-03-22T12:53:33.743Z,6.10
2018-03-22T12:54:33.540Z,6.10
2018-03-22T12:55:33.547Z,6.07
2018-03-22T12:56:33.387Z,6.07
2018-03-22T12:57:33.356Z,5.96
2018-03-22T12:58:33.227Z,5.99
2018-03-22T12:59:33.166Z,5.86
2018-03-22T13:00:33.068Z,5.85
2018-03-22T13:01:33.073Z,5.80
2018-03-22T13:02:32.909Z,5.83